الصفحة الرئيسية
METAR-TAF:

METAR-TAF

مطار :

مطار الرباط سلا

الرباط, المغرب

دائرة عرض: 34-03N, خط طول: 006-46W, ارتفاع: 84 متر

مراقبة الطقس الحالي

تاريخ ووقت الإصدار 6 دقيقة قبل الساعة 07:00UTC
ريح 7 عقدة من الشمال/الشمال الغربي
درجة الحرارة 14°درجة مئوية
الرطوبة 67%
ضغط 1012 hPa
الرؤية: 5000 متر
غيوم متفرقة على ارتفاع 1100 قدم, مزن ركامية عمودية.
غيوم متفرقة على ارتفاع 1600 قدم
غيوم مفككة على ارتفاع 2600 قدم

METAR: GMME 150700Z 33007KT 5000 SCT011TCU SCT016 BKN026 14/08 Q1012 NOSIG

زمن: 07:06 (07:06 UTC)

توقعات

تاريخ ووقت الإصدار 2ساعات و 6 دقيقة قبل الساعة 05:00UTC
التوقعات صالحة من15 الساعة 06 UTC إلى 16 الساعة 12 UTC
ريح 8 عقدة من الغرب
الرؤية: 5000 متر
غيوم متفرقة على ارتفاع 1500 قدم
غيوم مفككة على ارتفاع 2000 قدم
مؤقت
من 15 الساعة 09 UTC إلى 15 الساعة 20 UTC
ريح 18 عقدة من الشمال الغربي تتزايد حتى 28 عقدة
الرؤية: 3000 متر
غيوم مفككة على ارتفاع 1500 قدم
غيوم متفرقة على ارتفاع 2000 قدم, مزن ركامية عمودية.
زخات من المطر

TAF: GMME 150500Z 1506/1612 28008KT 5000 SCT015 BKN020 TEMPO 1509/1520 32018G28KT 3000 SHRA BKN015 SCT020TCU

أرصاد الطقس والتوقعات من أكثر من 4000 مطار (تقارير الطقس للمطار METAR والتنبؤ بالطقس بالمطارTAF).

المحطات المتاحة هي النقط الصفراء والحمراء على الخريطة.

حرك المؤشر فوق النقطة لمعرفة اسم المحطة.

ثم انقر لمعرفة أرصاد وتوقعات الطقس.

لتغيير الخارطة: اضغط على الأزرار الخضراء مع رمز الصليب الأسود للتكبير. على الزر الأخضر مع شرطة للتصغير، أو على الأسهم الخضراء للخرائط المجاورة.


METAR-TAF: